Time;durP1;ratioP1;P1;durP2;ratioP2;P2;SDS_P1;SDS_P2;PMS_P1;PMS_P2;Temp;Humidity;BMP_temperature;BMP_pressure;BME280_temperature;BME280_humidity;BME280_pressure;Samples;Min_cycle;Max_cycle;Signal;HPM_P1;HPM_P2
2023/07/25 00:02:40;;;;;;;8.93;7.85;;;;;;;;;;6261217;28;20295;-79
2023/07/25 00:05:44;;;;;;;9.32;7.72;;;;;;;;;;6261738;28;20528;-79
2023/07/25 00:08:48;;;;;;;9.27;7.70;;;;;;;;;;6261942;28;20529;-79
2023/07/25 00:11:52;;;;;;;8.70;8.00;;;;;;;;;;6261436;28;20572;-79
2023/07/25 00:14:56;;;;;;;9.35;7.18;;;;;;;;;;6261965;28;20240;-79
2023/07/25 00:18:01;;;;;;;8.32;7.47;;;;;;;;;;6262805;28;20284;-78
2023/07/25 00:21:05;;;;;;;10.40;8.20;;;;;;;;;;6264643;28;20236;-78
2023/07/25 00:24:09;;;;;;;8.75;7.97;;;;;;;;;;6265116;28;20248;-78
2023/07/25 00:27:13;;;;;;;9.77;7.72;;;;;;;;;;6262503;28;20240;-78
2023/07/25 00:30:17;;;;;;;9.77;8.13;;;;;;;;;;6259754;28;20293;-78
2023/07/25 00:33:22;;;;;;;8.90;8.15;;;;;;;;;;6259571;28;20271;-78
2023/07/25 00:36:26;;;;;;;11.38;7.85;;;;;;;;;;6259785;28;20352;-78
2023/07/25 00:39:30;;;;;;;9.70;7.53;;;;;;;;;;6260919;28;20237;-79
2023/07/25 00:42:34;;;;;;;10.23;8.52;;;;;;;;;;6259553;28;20275;-79
2023/07/25 00:45:39;;;;;;;8.45;7.60;;;;;;;;;;6243117;28;20284;-79
2023/07/25 00:48:45;;;;;;;9.52;8.63;;;;;;;;;;6260827;28;20248;-78
2023/07/25 00:51:49;;;;;;;11.27;8.57;;;;;;;;;;6260685;28;20264;-79
2023/07/25 00:54:52;;;;;;;9.60;8.65;;;;;;;;;;6260892;28;20240;-79
2023/07/25 00:57:56;;;;;;;8.75;7.85;;;;;;;;;;6260489;28;20408;-79
2023/07/25 01:01:04;;;;;;;9.70;8.65;;;;;;;;;;6258953;28;20301;-79
2023/07/25 01:04:09;;;;;;;10.02;7.97;;;;;;;;;;6260882;28;20324;-79
2023/07/25 01:07:14;;;;;;;9.00;8.20;;;;;;;;;;6260917;28;20248;-78
2023/07/25 01:10:18;;;;;;;9.45;8.07;;;;;;;;;;6259065;28;20267;-79
2023/07/25 01:13:22;;;;;;;12.85;8.73;;;;;;;;;;6260862;28;20255;-79
2023/07/25 01:16:27;;;;;;;15.60;9.35;;;;;;;;;;6260790;28;20244;-79
2023/07/25 01:19:34;;;;;;;10.93;8.60;;;;;;;;;;6262209;28;20264;-78
2023/07/25 01:22:39;;;;;;;10.93;9.30;;;;;;;;;;6260328;28;20240;-78
2023/07/25 01:25:47;;;;;;;12.95;8.63;;;;;;;;;;6262654;28;20225;-78
2023/07/25 01:28:51;;;;;;;9.45;8.52;;;;;;;;;;6260342;28;20415;-78
2023/07/25 01:31:54;;;;;;;12.23;8.85;;;;;;;;;;6260477;28;20280;-78
2023/07/25 01:34:58;;;;;;;9.25;8.38;;;;;;;;;;6260921;28;20276;-78
2023/07/25 01:38:02;;;;;;;9.77;8.52;;;;;;;;;;6265830;28;20244;-78
2023/07/25 01:41:07;;;;;;;13.15;9.40;;;;;;;;;;6265695;28;20248;-78
2023/07/25 01:44:11;;;;;;;9.70;8.70;;;;;;;;;;6268291;28;20279;-78
2023/07/25 01:47:15;;;;;;;10.30;9.15;;;;;;;;;;6268409;28;20235;-78
2023/07/25 01:50:19;;;;;;;12.35;8.85;;;;;;;;;;6268683;28;20440;-78
2023/07/25 01:53:22;;;;;;;11.88;8.75;;;;;;;;;;6264768;28;20300;-78
2023/07/25 01:56:28;;;;;;;11.55;9.30;;;;;;;;;;6264622;28;20520;-79
2023/07/25 01:59:32;;;;;;;10.05;9.07;;;;;;;;;;6262563;28;20268;-78
2023/07/25 02:02:35;;;;;;;9.65;8.73;;;;;;;;;;6270825;28;20320;-78
2023/07/25 02:05:39;;;;;;;13.63;9.52;;;;;;;;;;6239484;28;20245;-78
2023/07/25 02:08:43;;;;;;;10.55;9.50;;;;;;;;;;6240236;28;20482;-78
2023/07/25 02:11:48;;;;;;;10.30;9.30;;;;;;;;;;6230281;28;20297;-79
2023/07/25 02:14:52;;;;;;;14.20;9.32;;;;;;;;;;6230357;28;20282;-78
2023/07/25 02:17:56;;;;;;;10.68;9.68;;;;;;;;;;6230249;28;20274;-79
2023/07/25 02:21:00;;;;;;;10.10;9.10;;;;;;;;;;6230066;28;20293;-78
2023/07/25 02:24:04;;;;;;;13.65;9.68;;;;;;;;;;6230262;28;20540;-78
2023/07/25 02:27:09;;;;;;;11.27;9.35;;;;;;;;;;6230052;28;20273;-78
2023/07/25 02:30:13;;;;;;;12.10;9.40;;;;;;;;;;6230090;28;20268;-79
2023/07/25 02:33:17;;;;;;;11.80;9.57;;;;;;;;;;6215055;28;20446;-78
2023/07/25 02:36:21;;;;;;;14.57;10.38;;;;;;;;;;6214923;28;20250;-78
2023/07/25 02:39:25;;;;;;;11.65;9.75;;;;;;;;;;6214836;28;20242;-78
2023/07/25 02:42:30;;;;;;;12.73;9.52;;;;;;;;;;6214851;28;20305;-79
2023/07/25 02:45:34;;;;;;;13.80;10.02;;;;;;;;;;6214458;28;20246;-78
2023/07/25 02:48:38;;;;;;;16.95;9.70;;;;;;;;;;6229029;28;20451;-78
2023/07/25 02:51:42;;;;;;;12.82;9.98;;;;;;;;;;6214086;28;20261;-78
2023/07/25 02:54:46;;;;;;;12.00;10.07;;;;;;;;;;6214390;28;20246;-78
2023/07/25 02:57:51;;;;;;;13.68;9.85;;;;;;;;;;6214499;28;20250;-79
2023/07/25 03:00:55;;;;;;;12.25;9.35;;;;;;;;;;6229054;28;20276;-80
2023/07/25 03:03:59;;;;;;;17.65;9.77;;;;;;;;;;6207074;28;20464;-81
2023/07/25 03:07:02;;;;;;;14.27;9.98;;;;;;;;;;6205216;28;20405;-78
2023/07/25 03:10:07;;;;;;;14.30;9.80;;;;;;;;;;6202417;28;20253;-78
2023/07/25 03:13:13;;;;;;;16.13;10.90;;;;;;;;;;6247605;28;20289;-80
2023/07/25 03:16:17;;;;;;;11.00;9.85;;;;;;;;;;6247963;28;20273;-79
2023/07/25 03:19:20;;;;;;;11.85;9.95;;;;;;;;;;6215276;28;20261;-78
2023/07/25 03:22:24;;;;;;;13.40;9.68;;;;;;;;;;6213229;28;20258;-78
2023/07/25 03:25:28;;;;;;;11.82;10.00;;;;;;;;;;6213387;28;20282;-78
2023/07/25 03:28:33;;;;;;;11.00;9.40;;;;;;;;;;6213256;28;20265;-79
2023/07/25 03:31:37;;;;;;;12.63;9.85;;;;;;;;;;6213257;28;20245;-78
2023/07/25 03:34:41;;;;;;;11.52;10.38;;;;;;;;;;6228638;28;20281;-78
2023/07/25 03:37:45;;;;;;;14.23;10.32;;;;;;;;;;6244990;28;20273;-78
2023/07/25 03:40:48;;;;;;;13.40;10.40;;;;;;;;;;6213379;28;20249;-78
2023/07/25 03:43:54;;;;;;;10.93;9.70;;;;;;;;;;6245042;28;20273;-78
2023/07/25 03:46:57;;;;;;;14.98;10.70;;;;;;;;;;6228420;28;20368;-78
2023/07/25 03:50:02;;;;;;;17.77;11.38;;;;;;;;;;6246975;28;20277;-78
2023/07/25 03:53:06;;;;;;;13.60;10.45;;;;;;;;;;6213336;28;20261;-78
2023/07/25 03:56:09;;;;;;;12.32;9.70;;;;;;;;;;6212557;28;20433;-78
2023/07/25 03:59:15;;;;;;;16.40;10.63;;;;;;;;;;6227892;28;20273;-79
2023/07/25 04:02:18;;;;;;;11.48;10.27;;;;;;;;;;6235063;28;20304;-78
2023/07/25 04:05:22;;;;;;;14.15;10.38;;;;;;;;;;6237390;28;20237;-78
2023/07/25 04:08:26;;;;;;;13.82;10.90;;;;;;;;;;6252320;28;20292;-78
2023/07/25 04:11:30;;;;;;;13.13;10.48;;;;;;;;;;6241013;28;20229;-77
2023/07/25 04:14:35;;;;;;;13.43;10.10;;;;;;;;;;6238821;28;20350;-79
2023/07/25 04:17:39;;;;;;;10.95;9.70;;;;;;;;;;6251937;28;20421;-79
2023/07/25 04:20:43;;;;;;;12.38;9.80;;;;;;;;;;6236913;28;20245;-78
2023/07/25 04:23:47;;;;;;;12.38;11.02;;;;;;;;;;6236991;28;20253;-78
2023/07/25 04:26:51;;;;;;;11.18;10.07;;;;;;;;;;6236935;28;20233;-78
2023/07/25 04:29:56;;;;;;;11.77;9.82;;;;;;;;;;6236843;28;20241;-79
2023/07/25 04:33:00;;;;;;;11.80;10.18;;;;;;;;;;6236522;28;20348;-78
2023/07/25 04:36:04;;;;;;;11.52;9.55;;;;;;;;;;6251850;28;20292;-78
2023/07/25 04:39:08;;;;;;;12.43;10.90;;;;;;;;;;6251933;28;20277;-78
2023/07/25 04:42:11;;;;;;;12.02;10.80;;;;;;;;;;6253428;28;20467;-79
2023/07/25 04:45:17;;;;;;;12.55;10.13;;;;;;;;;;6236874;28;20513;-78
2023/07/25 04:48:20;;;;;;;16.20;10.75;;;;;;;;;;6236004;28;20241;-79
2023/07/25 04:51:24;;;;;;;13.30;9.50;;;;;;;;;;6235968;28;20245;-78
2023/07/25 04:54:28;;;;;;;11.27;9.57;;;;;;;;;;6251515;28;20572;-78
2023/07/25 04:57:33;;;;;;;11.95;9.73;;;;;;;;;;6251744;28;20268;-79
2023/07/25 05:00:38;;;;;;;14.45;10.23;;;;;;;;;;6251006;28;20276;-78
2023/07/25 05:03:45;;;;;;;16.60;9.70;;;;;;;;;;6252648;28;20299;-79
2023/07/25 05:06:49;;;;;;;13.80;9.52;;;;;;;;;;6237840;28;20252;-78
2023/07/25 05:09:53;;;;;;;12.95;9.45;;;;;;;;;;6237781;28;20249;-79
2023/07/25 05:12:57;;;;;;;13.88;9.45;;;;;;;;;;6240924;28;20540;-78
2023/07/25 05:16:02;;;;;;;17.90;9.80;;;;;;;;;;6240794;28;20233;-78
2023/07/25 05:19:06;;;;;;;11.70;10.25;;;;;;;;;;6240585;28;20244;-78
2023/07/25 05:22:10;;;;;;;11.55;8.57;;;;;;;;;;6240388;28;20244;-79
2023/07/25 05:25:14;;;;;;;9.73;8.82;;;;;;;;;;6240498;28;20240;-79
2023/07/25 05:28:19;;;;;;;10.32;9.25;;;;;;;;;;6240435;28;20236;-78
2023/07/25 05:31:24;;;;;;;13.48;9.77;;;;;;;;;;6240716;28;20253;-79
2023/07/25 05:34:28;;;;;;;13.18;9.45;;;;;;;;;;6240303;28;20272;-78
2023/07/25 05:37:36;;;;;;;10.18;9.07;;;;;;;;;;6240485;28;20245;-79
2023/07/25 05:40:40;;;;;;;12.20;9.65;;;;;;;;;;6240147;28;20474;-78
2023/07/25 05:43:44;;;;;;;10.77;9.52;;;;;;;;;;6240078;28;20252;-79
2023/07/25 05:46:49;;;;;;;10.50;9.02;;;;;;;;;;6240289;28;20261;-79
2023/07/25 05:49:53;;;;;;;12.77;9.20;;;;;;;;;;6240039;28;20252;-79
2023/07/25 05:52:57;;;;;;;11.02;9.20;;;;;;;;;;6239653;28;20432;-78
2023/07/25 05:56:00;;;;;;;9.98;8.07;;;;;;;;;;6240583;28;20249;-78
2023/07/25 05:59:04;;;;;;;13.13;9.02;;;;;;;;;;6240854;28;20240;-78
2023/07/25 06:02:11;;;;;;;11.23;9.05;;;;;;;;;;6263240;28;20296;-78
2023/07/25 06:05:14;;;;;;;9.85;8.50;;;;;;;;;;6266989;28;20244;-79
2023/07/25 06:08:18;;;;;;;9.77;8.65;;;;;;;;;;6268705;28;20459;-79
2023/07/25 06:11:23;;;;;;;10.57;9.48;;;;;;;;;;6265315;28;20517;-79
2023/07/25 06:14:27;;;;;;;9.05;8.23;;;;;;;;;;6266460;28;20275;-79
2023/07/25 06:17:32;;;;;;;10.55;9.43;;;;;;;;;;6264368;28;20232;-78
2023/07/25 06:20:36;;;;;;;10.93;9.35;;;;;;;;;;6263107;28;20329;-79
2023/07/25 06:23:40;;;;;;;10.48;8.57;;;;;;;;;;6263589;28;20256;-79
2023/07/25 06:26:43;;;;;;;10.77;9.07;;;;;;;;;;6263794;28;20244;-78
2023/07/25 06:29:47;;;;;;;11.52;8.18;;;;;;;;;;6263773;28;20240;-79
2023/07/25 06:32:52;;;;;;;11.23;8.50;;;;;;;;;;6264012;28;20244;-79
2023/07/25 06:35:58;;;;;;;10.35;8.02;;;;;;;;;;6263778;28;20256;-79
2023/07/25 06:39:02;;;;;;;17.17;7.60;;;;;;;;;;6281065;28;20264;-77
2023/07/25 06:42:07;;;;;;;9.60;8.05;;;;;;;;;;6266342;28;20225;-79
2023/07/25 06:45:12;;;;;;;9.40;8.20;;;;;;;;;;6278361;28;20271;-79
2023/07/25 06:48:17;;;;;;;8.77;7.70;;;;;;;;;;6263459;28;20245;-79
2023/07/25 06:51:21;;;;;;;9.07;8.10;;;;;;;;;;6263133;28;20408;-79
2023/07/25 06:54:25;;;;;;;8.80;7.50;;;;;;;;;;6263345;28;20275;-79
2023/07/25 06:57:29;;;;;;;11.40;7.57;;;;;;;;;;6263628;28;20248;-79
2023/07/25 07:00:37;;;;;;;8.23;7.47;;;;;;;;;;6263277;28;20256;-78
2023/07/25 07:03:42;;;;;;;8.20;7.32;;;;;;;;;;6262857;28;20480;-79
2023/07/25 07:06:46;;;;;;;8.60;7.82;;;;;;;;;;6262754;28;20256;-79
2023/07/25 07:09:50;;;;;;;9.02;7.75;;;;;;;;;;6262828;28;20244;-79
2023/07/25 07:12:53;;;;;;;8.57;7.30;;;;;;;;;;6263162;28;20236;-78
2023/07/25 07:15:57;;;;;;;8.52;7.43;;;;;;;;;;6263067;28;20271;-78
2023/07/25 07:19:03;;;;;;;8.27;7.47;;;;;;;;;;6262769;28;20559;-79
2023/07/25 07:22:07;;;;;;;10.57;7.15;;;;;;;;;;6262549;28;20233;-79
2023/07/25 07:25:11;;;;;;;9.93;7.32;;;;;;;;;;6262651;28;20253;-80
2023/07/25 07:28:14;;;;;;;7.88;7.18;;;;;;;;;;6262405;28;20260;-79
2023/07/25 07:31:23;;;;;;;10.85;7.65;;;;;;;;;;6262286;28;20232;-80
2023/07/25 07:34:28;;;;;;;8.18;7.32;;;;;;;;;;6271084;28;20264;-79
2023/07/25 07:37:32;;;;;;;7.80;7.00;;;;;;;;;;6265485;28;20240;-79
2023/07/25 07:40:37;;;;;;;7.82;7.13;;;;;;;;;;6262368;28;20312;-79
2023/07/25 07:43:41;;;;;;;9.90;7.00;;;;;;;;;;6262387;28;20232;-79
2023/07/25 07:46:44;;;;;;;7.20;6.50;;;;;;;;;;6262273;28;20249;-79
2023/07/25 07:49:50;;;;;;;7.13;6.30;;;;;;;;;;6262236;28;20244;-79
2023/07/25 07:52:53;;;;;;;8.20;6.60;;;;;;;;;;6262638;28;20544;-80
2023/07/25 07:55:57;;;;;;;11.60;7.05;;;;;;;;;;6261819;28;20424;-79
2023/07/25 07:59:01;;;;;;;7.30;6.57;;;;;;;;;;6262492;28;20236;-79
2023/07/25 08:02:05;;;;;;;7.03;6.30;;;;;;;;;;6262029;28;20279;-80
2023/07/25 08:05:11;;;;;;;7.68;6.93;;;;;;;;;;6260417;28;20288;-80
2023/07/25 08:08:15;;;;;;;7.45;6.75;;;;;;;;;;6261696;28;20237;-80
2023/07/25 08:11:20;;;;;;;8.25;6.40;;;;;;;;;;6260178;28;20271;-80
2023/07/25 08:14:24;;;;;;;6.10;5.72;;;;;;;;;;6261558;28;20229;-79
2023/07/25 08:17:27;;;;;;;7.35;6.30;;;;;;;;;;6261620;28;20247;-79
2023/07/25 08:20:33;;;;;;;6.32;5.75;;;;;;;;;;6261721;28;20240;-80
2023/07/25 08:23:37;;;;;;;6.85;6.00;;;;;;;;;;6261494;28;20308;-81
2023/07/25 08:26:40;;;;;;;8.18;6.75;;;;;;;;;;6276776;28;20271;-80
2023/07/25 08:29:45;;;;;;;6.95;6.35;;;;;;;;;;6261643;28;20245;-80
2023/07/25 08:32:49;;;;;;;6.47;5.90;;;;;;;;;;6261647;28;20240;-80
2023/07/25 08:35:54;;;;;;;7.57;5.78;;;;;;;;;;6261138;28;20271;-80
2023/07/25 08:38:58;;;;;;;5.20;5.00;;;;;;;;;;6260145;28;20458;-80
2023/07/25 08:42:05;;;;;;;5.72;5.25;;;;;;;;;;6261016;28;20244;-80
2023/07/25 08:45:10;;;;;;;5.82;5.50;;;;;;;;;;6260615;28;20240;-80
2023/07/25 08:48:15;;;;;;;5.22;4.95;;;;;;;;;;6261464;28;20529;-80
2023/07/25 08:51:21;;;;;;;5.07;4.78;;;;;;;;;;6265094;28;20236;-80
2023/07/25 08:54:30;;;;;;;6.07;5.50;;;;;;;;;;6260770;28;20244;-80
2023/07/25 08:57:34;;;;;;;5.07;4.88;;;;;;;;;;6262915;28;20290;-80
2023/07/25 09:00:38;;;;;;;5.00;4.60;;;;;;;;;;6272481;28;20253;-80
2023/07/25 09:03:42;;;;;;;5.13;4.70;;;;;;;;;;6261620;28;20348;-79
2023/07/25 09:06:48;;;;;;;5.82;5.30;;;;;;;;;;6262266;28;20512;-77
2023/07/25 09:09:52;;;;;;;5.05;4.70;;;;;;;;;;6262569;28;20247;-79
2023/07/25 09:12:56;;;;;;;4.88;4.57;;;;;;;;;;6260300;28;20252;-80
2023/07/25 09:15:59;;;;;;;6.15;4.90;;;;;;;;;;6260453;28;20264;-81
2023/07/25 09:19:03;;;;;;;4.30;4.20;;;;;;;;;;6260705;28;20244;-80
2023/07/25 09:22:26;;;;;;;5.65;5.15;;;;;;;;;;6260620;28;20418;-79
2023/07/25 09:25:30;;;;;;;5.68;4.78;;;;;;;;;;6260130;28;20432;-79
2023/07/25 09:28:34;;;;;;;9.48;4.70;;;;;;;;;;6260252;28;20427;-80
2023/07/25 09:31:43;;;;;;;8.07;4.97;;;;;;;;;;6260590;28;20244;-81
2023/07/25 09:34:54;;;;;;;7.35;4.75;;;;;;;;;;6260071;28;20236;-79
2023/07/25 09:37:59;;;;;;;5.40;4.95;;;;;;;;;;6260326;28;20423;-80
2023/07/25 09:41:03;;;;;;;4.88;4.57;;;;;;;;;;6260346;28;20240;-81
2023/07/25 09:44:07;;;;;;;5.53;5.00;;;;;;;;;;6259957;28;20241;-80
2023/07/25 09:47:11;;;;;;;4.65;4.25;;;;;;;;;;6260561;28;20244;-81
2023/07/25 09:50:17;;;;;;;4.43;3.95;;;;;;;;;;6260323;28;20380;-81
2023/07/25 09:53:22;;;;;;;4.63;4.30;;;;;;;;;;6260309;28;20244;-81
2023/07/25 09:56:27;;;;;;;4.30;4.07;;;;;;;;;;6262327;28;20268;-81
2023/07/25 09:59:31;;;;;;;4.15;3.85;;;;;;;;;;6247172;28;20267;-81
2023/07/25 10:02:35;;;;;;;4.72;4.38;;;;;;;;;;6264647;28;20576;-81
2023/07/25 10:05:42;;;;;;;4.15;3.88;;;;;;;;;;6264588;28;20241;-81
2023/07/25 10:08:48;;;;;;;4.20;3.97;;;;;;;;;;6264196;28;20244;-78
2023/07/25 10:11:53;;;;;;;11.00;5.07;;;;;;;;;;6264432;28;20240;-79
2023/07/25 10:14:57;;;;;;;14.43;5.38;;;;;;;;;;6264393;28;20448;-79
2023/07/25 10:18:02;;;;;;;8.48;3.75;;;;;;;;;;6264321;28;20268;-79
2023/07/25 10:21:08;;;;;;;3.80;2.80;;;;;;;;;;6264699;28;20524;-79
2023/07/25 10:24:14;;;;;;;3.20;2.38;;;;;;;;;;6268470;28;20233;-80
2023/07/25 10:27:19;;;;;;;2.58;2.45;;;;;;;;;;6275020;28;20193;-80
2023/07/25 10:30:24;;;;;;;3.20;2.70;;;;;;;;;;6264467;28;20236;-80
2023/07/25 10:33:28;;;;;;;3.72;2.13;;;;;;;;;;6264129;28;20532;-79
2023/07/25 10:36:31;;;;;;;2.67;2.05;;;;;;;;;;6279382;28;20296;-79
2023/07/25 10:39:37;;;;;;;5.65;2.83;;;;;;;;;;6264341;28;20253;-80
2023/07/25 10:42:59;;;;;;;3.03;2.83;;;;;;;;;;6264137;28;20232;-81
2023/07/25 10:46:13;;;;;;;5.28;3.05;;;;;;;;;;6263831;28;20308;-82
2023/07/25 10:49:17;;;;;;;4.97;2.47;;;;;;;;;;6263742;28;20240;-82
2023/07/25 10:52:42;;;;;;;2.65;2.15;;;;;;;;;;6262688;28;20435;-81
2023/07/25 10:56:11;;;;;;;2.58;2.25;;;;;;;;;;6263954;28;20237;-81
2023/07/25 10:59:15;;;;;;;8.52;2.30;;;;;;;;;;6262657;28;20272;-81
2023/07/25 11:02:29;;;;;;;2.22;2.13;;;;;;;;;;6264151;28;20296;-81
2023/07/25 11:05:32;;;;;;;2.13;2.13;;;;;;;;;;6263458;28;20244;-82
2023/07/25 11:08:37;;;;;;;2.88;2.60;;;;;;;;;;6262361;28;20240;-81
2023/07/25 11:11:47;;;;;;;2.25;2.05;;;;;;;;;;6263237;28;20516;-81
2023/07/25 11:14:51;;;;;;;2.50;2.40;;;;;;;;;;6263407;28;20229;-81
2023/07/25 11:17:56;;;;;;;2.67;2.47;;;;;;;;;;6263319;28;20510;-82
2023/07/25 11:21:01;;;;;;;2.35;2.30;;;;;;;;;;6263228;28;20241;-81
2023/07/25 11:24:06;;;;;;;2.22;2.03;;;;;;;;;;6262817;28;20245;-81
2023/07/25 11:27:11;;;;;;;1.75;1.75;;;;;;;;;;6262408;28;20240;-81
2023/07/25 11:30:16;;;;;;;1.83;1.83;;;;;;;;;;6262966;28;20240;-81
2023/07/25 11:33:20;;;;;;;2.50;2.20;;;;;;;;;;6262663;28;20232;-81
2023/07/25 11:36:24;;;;;;;2.95;2.45;;;;;;;;;;6267406;28;20249;-81
2023/07/25 11:39:28;;;;;;;2.10;2.00;;;;;;;;;;6265991;28;20236;-81
2023/07/25 11:42:33;;;;;;;2.95;1.90;;;;;;;;;;6262368;28;20496;-81
2023/07/25 11:45:37;;;;;;;2.13;2.05;;;;;;;;;;6262335;28;20244;-81
2023/07/25 11:48:41;;;;;;;3.28;2.30;;;;;;;;;;6262279;28;20244;-81
2023/07/25 11:51:45;;;;;;;3.35;2.70;;;;;;;;;;6276831;28;20499;-81
2023/07/25 11:54:49;;;;;;;2.60;2.42;;;;;;;;;;6262324;28;20248;-81
2023/07/25 11:57:54;;;;;;;4.32;3.20;;;;;;;;;;6261973;28;20451;-81
2023/07/25 12:00:58;;;;;;;2.65;2.55;;;;;;;;;;6260406;28;20292;-81
2023/07/25 12:04:03;;;;;;;6.40;3.08;;;;;;;;;;6262365;28;20291;-81
2023/07/25 12:07:07;;;;;;;3.05;2.85;;;;;;;;;;6259631;28;20275;-81
2023/07/25 12:10:11;;;;;;;2.92;2.83;;;;;;;;;;6261773;28;20236;-81
2023/07/25 12:13:16;;;;;;;2.90;2.80;;;;;;;;;;6261893;28;20240;-81
2023/07/25 12:16:31;;;;;;;2.97;2.88;;;;;;;;;;6261890;28;20257;-81
2023/07/25 12:19:35;;;;;;;4.68;2.97;;;;;;;;;;6261799;28;20284;-81
2023/07/25 12:22:39;;;;;;;3.90;3.70;;;;;;;;;;6261752;28;20244;-82
2023/07/25 12:25:43;;;;;;;3.63;3.42;;;;;;;;;;6261443;28;20243;-81
2023/07/25 12:28:49;;;;;;;3.72;3.42;;;;;;;;;;6261388;28;20411;-81
2023/07/25 12:31:53;;;;;;;2.50;2.30;;;;;;;;;;6261828;28;20244;-81
2023/07/25 12:35:01;;;;;;;2.90;2.70;;;;;;;;;;6264918;28;20233;-81
2023/07/25 12:38:05;;;;;;;3.08;2.85;;;;;;;;;;6261422;28;20263;-81
2023/07/25 12:41:09;;;;;;;4.15;2.67;;;;;;;;;;6259791;28;20276;-81
2023/07/25 12:44:14;;;;;;;3.15;2.95;;;;;;;;;;6261220;28;20236;-82
2023/07/25 12:47:17;;;;;;;3.40;2.80;;;;;;;;;;6261140;28;20256;-80
2023/07/25 12:50:21;;;;;;;4.65;2.83;;;;;;;;;;6260746;28;20411;-81
2023/07/25 12:53:25;;;;;;;2.80;2.60;;;;;;;;;;6260865;28;20244;-82
2023/07/25 12:56:29;;;;;;;3.22;2.67;;;;;;;;;;6261171;28;20504;-82
2023/07/25 12:59:35;;;;;;;3.42;3.20;;;;;;;;;;6261022;28;20269;-80
2023/07/25 13:02:38;;;;;;;3.67;2.92;;;;;;;;;;6260831;28;20292;-80
2023/07/25 13:05:43;;;;;;;5.45;3.03;;;;;;;;;;6260671;28;20240;-81
2023/07/25 13:08:46;;;;;;;2.40;2.30;;;;;;;;;;6260740;28;20248;-80
2023/07/25 13:11:50;;;;;;;3.20;2.47;;;;;;;;;;6276251;28;20449;-81
2023/07/25 13:14:55;;;;;;;3.55;2.70;;;;;;;;;;6261531;28;20248;-80
2023/07/25 13:17:59;;;;;;;2.47;2.35;;;;;;;;;;6274220;28;20256;-80
2023/07/25 13:21:03;;;;;;;2.78;2.60;;;;;;;;;;6261158;28;20402;-80
2023/07/25 13:24:07;;;;;;;2.53;2.42;;;;;;;;;;6260956;28;20512;-81
2023/07/25 13:27:11;;;;;;;2.38;2.33;;;;;;;;;;6263144;28;20253;-80
2023/07/25 13:30:16;;;;;;;2.80;2.70;;;;;;;;;;6260526;28;20240;-80
2023/07/25 13:33:20;;;;;;;2.70;2.50;;;;;;;;;;6264331;28;20268;-80
2023/07/25 13:36:24;;;;;;;3.30;3.00;;;;;;;;;;6265519;28;20240;-82
2023/07/25 13:39:28;;;;;;;2.78;2.67;;;;;;;;;;6280677;28;20283;-82
2023/07/25 13:42:32;;;;;;;2.80;2.63;;;;;;;;;;6265215;28;20244;-82
2023/07/25 13:45:37;;;;;;;3.40;3.17;;;;;;;;;;6266169;28;20244;-82
2023/07/25 13:48:55;;;;;;;2.65;2.58;;;;;;;;;;6264467;28;20271;-82
2023/07/25 13:51:59;;;;;;;3.85;2.67;;;;;;;;;;6264886;28;20252;-82
2023/07/25 13:55:07;;;;;;;2.72;2.63;;;;;;;;;;6264695;28;20248;-81
2023/07/25 13:58:11;;;;;;;2.95;2.75;;;;;;;;;;6264768;28;20355;-82
2023/07/25 14:01:26;;;;;;;2.30;2.22;;;;;;;;;;6264606;28;20256;-82
2023/07/25 14:04:30;;;;;;;2.58;2.47;;;;;;;;;;6276612;28;20185;-82
2023/07/25 14:07:34;;;;;;;2.80;2.70;;;;;;;;;;6272202;28;20240;-81
2023/07/25 14:10:39;;;;;;;2.40;2.30;;;;;;;;;;6264510;28;20283;-82
2023/07/25 14:13:43;;;;;;;2.72;2.63;;;;;;;;;;6263090;28;20288;-81
2023/07/25 14:16:48;;;;;;;2.50;2.40;;;;;;;;;;6264460;28;20543;-81
2023/07/25 14:19:52;;;;;;;2.80;2.60;;;;;;;;;;6264483;28;20279;-81
2023/07/25 14:22:56;;;;;;;3.13;2.88;;;;;;;;;;6264232;28;20278;-81
2023/07/25 14:26:00;;;;;;;2.60;2.50;;;;;;;;;;6264091;28;20232;-81
2023/07/25 14:29:04;;;;;;;3.75;3.47;;;;;;;;;;6263928;28;20243;-81
2023/07/25 14:32:09;;;;;;;3.17;2.97;;;;;;;;;;6264191;28;20245;-81
2023/07/25 14:35:13;;;;;;;2.50;2.40;;;;;;;;;;6263591;28;20233;-81
2023/07/25 14:38:18;;;;;;;2.40;2.35;;;;;;;;;;6264004;28;20509;-81
2023/07/25 14:41:22;;;;;;;2.55;2.42;;;;;;;;;;6269805;28;20273;-82
2023/07/25 14:44:26;;;;;;;3.50;3.30;;;;;;;;;;6270031;28;20248;-81
2023/07/25 14:47:31;;;;;;;2.60;2.60;;;;;;;;;;6263704;28;20252;-81
2023/07/25 14:50:36;;;;;;;2.90;2.80;;;;;;;;;;6263960;28;20244;-81
2023/07/25 14:53:40;;;;;;;2.70;2.70;;;;;;;;;;6263947;28;20244;-81
2023/07/25 14:56:43;;;;;;;2.55;2.35;;;;;;;;;;6263452;28;20246;-81
2023/07/25 14:59:48;;;;;;;2.80;2.40;;;;;;;;;;6263679;28;20264;-81
2023/07/25 15:02:53;;;;;;;2.78;2.63;;;;;;;;;;6263174;28;20291;-81
2023/07/25 15:05:57;;;;;;;2.60;2.50;;;;;;;;;;6263136;28;20252;-81
2023/07/25 15:09:01;;;;;;;2.78;2.78;;;;;;;;;;6263052;28;20384;-81
2023/07/25 15:12:06;;;;;;;2.63;2.60;;;;;;;;;;6262983;28;20240;-80
2023/07/25 15:15:10;;;;;;;2.63;2.53;;;;;;;;;;6263387;28;20236;-81
2023/07/25 15:18:16;;;;;;;2.78;2.60;;;;;;;;;;6262867;28;20252;-81
2023/07/25 15:21:19;;;;;;;3.05;2.95;;;;;;;;;;6262710;28;20264;-81
2023/07/25 15:24:23;;;;;;;3.13;3.03;;;;;;;;;;6263074;28;20466;-81
2023/07/25 15:27:27;;;;;;;3.08;3.00;;;;;;;;;;6262652;28;20240;-81
2023/07/25 15:30:32;;;;;;;3.90;3.70;;;;;;;;;;6262761;28;20236;-81
2023/07/25 15:33:37;;;;;;;3.83;3.72;;;;;;;;;;6263317;28;20236;-81
2023/07/25 15:36:41;;;;;;;3.85;3.70;;;;;;;;;;6266829;28;20225;-81
2023/07/25 15:39:49;;;;;;;3.45;3.25;;;;;;;;;;6265703;28;20256;-81
2023/07/25 15:42:52;;;;;;;3.50;3.35;;;;;;;;;;6263429;28;20264;-81
2023/07/25 15:45:57;;;;;;;3.25;3.13;;;;;;;;;;6262563;28;20245;-81
2023/07/25 15:49:02;;;;;;;3.38;3.15;;;;;;;;;;6262617;28;20244;-81
2023/07/25 15:52:06;;;;;;;3.92;3.30;;;;;;;;;;6265070;28;20236;-82
2023/07/25 15:55:10;;;;;;;2.47;2.38;;;;;;;;;;6261664;28;20244;-81
2023/07/25 15:58:14;;;;;;;1.52;1.40;;;;;;;;;;6261826;28;20244;-82
2023/07/25 16:01:18;;;;;;;1.50;1.50;;;;;;;;;;6261753;28;20465;-82
2023/07/25 16:04:23;;;;;;;7.10;1.27;;;;;;;;;;6261630;28;20480;-82
2023/07/25 16:07:27;;;;;;;1.02;1.00;;;;;;;;;;6275268;28;20236;-79
2023/07/25 16:10:31;;;;;;;1.25;1.20;;;;;;;;;;6262657;28;20247;-82
2023/07/25 16:13:37;;;;;;;2.00;1.00;;;;;;;;;;6277178;28;20405;-82
2023/07/25 16:16:42;;;;;;;0.98;0.90;;;;;;;;;;6261545;28;20240;-81
2023/07/25 16:19:47;;;;;;;0.85;0.85;;;;;;;;;;6261381;28;20268;-81
2023/07/25 16:22:51;;;;;;;1.45;1.00;;;;;;;;;;6261424;28;20240;-82
2023/07/25 16:25:56;;;;;;;1.48;1.48;;;;;;;;;;6277209;28;20276;-82
2023/07/25 16:29:00;;;;;;;1.95;1.00;;;;;;;;;;6261554;28;20236;-81
2023/07/25 16:32:04;;;;;;;4.35;1.15;;;;;;;;;;6265251;28;20264;-81
2023/07/25 16:35:11;;;;;;;1.35;1.25;;;;;;;;;;6265998;28;20339;-80
2023/07/25 16:38:15;;;;;;;1.10;1.10;;;;;;;;;;6261445;28;20293;-81
2023/07/25 16:41:19;;;;;;;2.72;0.80;;;;;;;;;;6259824;28;20292;-81
2023/07/25 16:44:23;;;;;;;0.90;0.90;;;;;;;;;;6260829;28;20239;-81
2023/07/25 16:47:27;;;;;;;1.20;1.20;;;;;;;;;;6261108;28;20240;-81
2023/07/25 16:50:32;;;;;;;0.95;0.95;;;;;;;;;;6261214;28;20240;-81
2023/07/25 16:53:35;;;;;;;1.00;1.00;;;;;;;;;;6261156;28;20533;-81
2023/07/25 16:56:39;;;;;;;1.08;1.08;;;;;;;;;;6260599;28;20540;-81
2023/07/25 16:59:43;;;;;;;1.10;1.10;;;;;;;;;;6260902;28;20236;-81
2023/07/25 17:02:47;;;;;;;1.20;1.08;;;;;;;;;;6260214;28;20299;-80
2023/07/25 17:05:52;;;;;;;2.33;1.10;;;;;;;;;;6259869;28;20432;-81
2023/07/25 17:08:56;;;;;;;1.00;1.00;;;;;;;;;;6260348;28;20232;-80
2023/07/25 17:12:00;;;;;;;0.93;0.93;;;;;;;;;;6260588;28;20260;-81
2023/07/25 17:15:07;;;;;;;1.20;1.20;;;;;;;;;;6260558;28;20240;-81
2023/07/25 17:18:11;;;;;;;2.35;1.20;;;;;;;;;;6260407;28;20278;-80
2023/07/25 17:21:16;;;;;;;1.20;1.20;;;;;;;;;;6260581;28;20584;-80
2023/07/25 17:24:40;;;;;;;1.30;1.30;;;;;;;;;;6260616;28;20319;-81
2023/07/25 17:27:44;;;;;;;0.90;0.90;;;;;;;;;;6260010;28;20236;-80
2023/07/25 17:30:48;;;;;;;1.75;1.20;;;;;;;;;;6264212;28;20229;-79
2023/07/25 17:33:51;;;;;;;2.28;1.20;;;;;;;;;;6270338;28;20208;-81
2023/07/25 17:36:57;;;;;;;1.45;1.25;;;;;;;;;;6260220;28;20244;-81
2023/07/25 17:40:00;;;;;;;1.95;1.42;;;;;;;;;;6260200;28;20245;-80
2023/07/25 17:43:04;;;;;;;1.48;1.30;;;;;;;;;;6259829;28;20244;-81
2023/07/25 17:46:08;;;;;;;1.95;1.30;;;;;;;;;;6259710;28;20240;-81
2023/07/25 17:49:12;;;;;;;1.40;1.30;;;;;;;;;;6258985;28;20276;-80
2023/07/25 17:52:17;;;;;;;3.08;1.40;;;;;;;;;;6259859;28;20252;-80
2023/07/25 17:55:21;;;;;;;2.45;1.38;;;;;;;;;;6259906;28;20238;-81
2023/07/25 17:58:24;;;;;;;1.40;1.30;;;;;;;;;;6259689;28;20384;-82
2023/07/25 18:01:28;;;;;;;1.80;1.48;;;;;;;;;;6260098;28;20276;-81
2023/07/25 18:04:33;;;;;;;1.38;1.30;;;;;;;;;;6259823;28;20244;-82
2023/07/25 18:07:38;;;;;;;1.45;1.45;;;;;;;;;;6259761;28;20252;-81
2023/07/25 18:10:41;;;;;;;1.75;1.50;;;;;;;;;;6259988;28;20433;-81
2023/07/25 18:13:46;;;;;;;1.38;1.38;;;;;;;;;;6260052;28;20536;-80
2023/07/25 18:16:49;;;;;;;3.60;1.25;;;;;;;;;;6263125;28;20271;-80
2023/07/25 18:19:53;;;;;;;1.92;1.83;;;;;;;;;;6264019;28;20351;-81
2023/07/25 18:22:58;;;;;;;3.20;1.50;;;;;;;;;;6263695;28;20272;-81